sensor_id;sensor_type;location;lat;lon;timestamp;pressure;altitude;pressure_sealevel;temperature;humidity
56719;BME280;42597;40.636;0.278;2023-04-07T00:00:22;97494.66;;;13.20;65.29
56719;BME280;42597;40.636;0.278;2023-04-07T00:02:47;97496.63;;;13.04;66.36
56719;BME280;42597;40.636;0.278;2023-04-07T00:05:14;97495.84;;;12.88;66.06
56719;BME280;42597;40.636;0.278;2023-04-07T00:07:40;97493.47;;;12.70;67.01
56719;BME280;42597;40.636;0.278;2023-04-07T00:10:06;97493.84;;;12.84;66.41
56719;BME280;42597;40.636;0.278;2023-04-07T00:12:32;97494.97;;;13.34;66.83
56719;BME280;42597;40.636;0.278;2023-04-07T00:14:58;97495.84;;;13.39;65.77
56719;BME280;42597;40.636;0.278;2023-04-07T00:17:24;97497.19;;;13.83;63.83
56719;BME280;42597;40.636;0.278;2023-04-07T00:19:50;97484.03;;;12.96;64.40
56719;BME280;42597;40.636;0.278;2023-04-07T00:22:16;97481.97;;;13.24;67.50
56719;BME280;42597;40.636;0.278;2023-04-07T00:24:42;97480.88;;;13.64;63.26
56719;BME280;42597;40.636;0.278;2023-04-07T00:27:08;97483.44;;;13.96;63.44
56719;BME280;42597;40.636;0.278;2023-04-07T00:29:33;97479.31;;;13.63;63.65
56719;BME280;42597;40.636;0.278;2023-04-07T00:31:59;97477.84;;;13.30;63.51
56719;BME280;42597;40.636;0.278;2023-04-07T00:34:25;97476.75;;;13.51;64.12
56719;BME280;42597;40.636;0.278;2023-04-07T00:36:50;97479.66;;;12.91;65.66
56719;BME280;42597;40.636;0.278;2023-04-07T00:39:19;97473.19;;;12.96;64.09
56719;BME280;42597;40.636;0.278;2023-04-07T00:41:46;97473.88;;;12.93;64.38
56719;BME280;42597;40.636;0.278;2023-04-07T00:44:12;97465.50;;;13.17;64.99
56719;BME280;42597;40.636;0.278;2023-04-07T00:46:38;97461.94;;;13.48;63.89
56719;BME280;42597;40.636;0.278;2023-04-07T00:49:05;97456.75;;;14.44;63.13
56719;BME280;42597;40.636;0.278;2023-04-07T00:51:31;97440.91;;;14.72;61.60
56719;BME280;42597;40.636;0.278;2023-04-07T00:53:58;97446.53;;;14.37;58.88
56719;BME280;42597;40.636;0.278;2023-04-07T00:56:23;97441.03;;;14.33;61.22
56719;BME280;42597;40.636;0.278;2023-04-07T00:58:49;97439.00;;;13.46;61.58
56719;BME280;42597;40.636;0.278;2023-04-07T01:01:20;97434.25;;;14.01;62.45
56719;BME280;42597;40.636;0.278;2023-04-07T01:04:19;97433.69;;;13.92;62.88
56719;BME280;42597;40.636;0.278;2023-04-07T01:06:49;97430.72;;;13.39;61.75
56719;BME280;42597;40.636;0.278;2023-04-07T01:09:22;97435.34;;;13.38;62.36
56719;BME280;42597;40.636;0.278;2023-04-07T01:12:10;97435.03;;;13.59;62.62
56719;BME280;42597;40.636;0.278;2023-04-07T01:14:44;97435.16;;;13.27;62.21
56719;BME280;42597;40.636;0.278;2023-04-07T01:17:12;97439.53;;;13.51;63.31
56719;BME280;42597;40.636;0.278;2023-04-07T01:19:43;97430.69;;;13.19;62.49
56719;BME280;42597;40.636;0.278;2023-04-07T01:22:19;97427.44;;;13.29;62.88
56719;BME280;42597;40.636;0.278;2023-04-07T01:30:32;97420.78;;;12.92;64.11
56719;BME280;42597;40.636;0.278;2023-04-07T01:33:00;97412.78;;;12.64;64.02
56719;BME280;42597;40.636;0.278;2023-04-07T01:35:30;97420.38;;;12.58;64.82
56719;BME280;42597;40.636;0.278;2023-04-07T01:37:57;97412.16;;;12.70;63.78
56719;BME280;42597;40.636;0.278;2023-04-07T01:40:24;97408.81;;;13.12;65.52
56719;BME280;42597;40.636;0.278;2023-04-07T01:42:52;97408.06;;;12.60;64.53
56719;BME280;42597;40.636;0.278;2023-04-07T01:45:19;97401.25;;;13.21;65.84
56719;BME280;42597;40.636;0.278;2023-04-07T01:47:46;97399.28;;;13.38;63.67
56719;BME280;42597;40.636;0.278;2023-04-07T01:50:12;97398.16;;;14.23;62.80
56719;BME280;42597;40.636;0.278;2023-04-07T01:52:39;97400.97;;;13.07;62.45
56719;BME280;42597;40.636;0.278;2023-04-07T01:55:06;97400.28;;;13.68;63.65
56719;BME280;42597;40.636;0.278;2023-04-07T01:57:32;97405.53;;;13.22;62.30
56719;BME280;42597;40.636;0.278;2023-04-07T01:59:58;97396.78;;;12.74;63.31
56719;BME280;42597;40.636;0.278;2023-04-07T02:02:24;97389.19;;;12.48;64.68
56719;BME280;42597;40.636;0.278;2023-04-07T02:05:00;97390.09;;;12.88;65.11
56719;BME280;42597;40.636;0.278;2023-04-07T02:07:50;97393.09;;;12.82;65.64
56719;BME280;42597;40.636;0.278;2023-04-07T02:10:19;97392.44;;;12.89;63.15
56719;BME280;42597;40.636;0.278;2023-04-07T02:12:46;97390.47;;;12.70;64.45
56719;BME280;42597;40.636;0.278;2023-04-07T02:15:12;97381.38;;;12.78;63.29
56719;BME280;42597;40.636;0.278;2023-04-07T02:17:42;97384.47;;;12.45;64.22
56719;BME280;42597;40.636;0.278;2023-04-07T02:20:11;97376.63;;;14.61;60.09
56719;BME280;42597;40.636;0.278;2023-04-07T02:22:38;97375.31;;;13.40;60.75
56719;BME280;42597;40.636;0.278;2023-04-07T02:25:26;97365.25;;;12.85;64.23
56719;BME280;42597;40.636;0.278;2023-04-07T02:27:53;97365.78;;;12.40;64.03
56719;BME280;42597;40.636;0.278;2023-04-07T02:30:19;97376.41;;;12.65;64.54
56719;BME280;42597;40.636;0.278;2023-04-07T02:32:45;97366.94;;;12.23;65.22
56719;BME280;42597;40.636;0.278;2023-04-07T02:35:11;97361.06;;;12.37;65.54
56719;BME280;42597;40.636;0.278;2023-04-07T02:37:38;97361.34;;;12.16;65.31
56719;BME280;42597;40.636;0.278;2023-04-07T02:40:04;97361.03;;;11.74;67.05
56719;BME280;42597;40.636;0.278;2023-04-07T02:42:30;97356.66;;;11.69;67.09
56719;BME280;42597;40.636;0.278;2023-04-07T02:44:56;97356.28;;;12.30;65.92
56719;BME280;42597;40.636;0.278;2023-04-07T02:47:24;97358.16;;;12.46;67.18
56719;BME280;42597;40.636;0.278;2023-04-07T02:49:50;97352.16;;;12.37;65.28
56719;BME280;42597;40.636;0.278;2023-04-07T02:52:16;97352.91;;;12.53;64.81
56719;BME280;42597;40.636;0.278;2023-04-07T02:54:42;97352.25;;;12.24;65.31
56719;BME280;42597;40.636;0.278;2023-04-07T02:57:08;97357.59;;;12.05;66.33
56719;BME280;42597;40.636;0.278;2023-04-07T02:59:33;97353.28;;;13.06;66.50
56719;BME280;42597;40.636;0.278;2023-04-07T03:01:59;97358.34;;;13.07;65.32
56719;BME280;42597;40.636;0.278;2023-04-07T03:04:24;97352.16;;;13.46;63.36
56719;BME280;42597;40.636;0.278;2023-04-07T03:06:50;97351.66;;;13.40;62.75
56719;BME280;42597;40.636;0.278;2023-04-07T03:09:16;97364.97;;;12.91;64.19
56719;BME280;42597;40.636;0.278;2023-04-07T03:11:41;97360.09;;;12.29;64.68
56719;BME280;42597;40.636;0.278;2023-04-07T03:14:07;97356.19;;;12.27;65.88
56719;BME280;42597;40.636;0.278;2023-04-07T03:16:33;97354.81;;;12.68;63.36
56719;BME280;42597;40.636;0.278;2023-04-07T03:18:58;97349.44;;;12.37;64.98
56719;BME280;42597;40.636;0.278;2023-04-07T03:21:24;97359.38;;;12.64;65.03
56719;BME280;42597;40.636;0.278;2023-04-07T03:23:49;97347.53;;;12.21;65.65
56719;BME280;42597;40.636;0.278;2023-04-07T03:26:15;97350.41;;;12.79;64.92
56719;BME280;42597;40.636;0.278;2023-04-07T03:28:40;97344.81;;;13.69;64.40
56719;BME280;42597;40.636;0.278;2023-04-07T03:31:06;97343.84;;;13.39;64.49
56719;BME280;42597;40.636;0.278;2023-04-07T03:33:32;97338.91;;;13.64;62.33
56719;BME280;42597;40.636;0.278;2023-04-07T03:35:57;97338.78;;;12.44;63.37
56719;BME280;42597;40.636;0.278;2023-04-07T03:38:23;97342.47;;;12.35;65.65
56719;BME280;42597;40.636;0.278;2023-04-07T03:40:48;97345.22;;;12.55;65.54
56719;BME280;42597;40.636;0.278;2023-04-07T03:43:14;97337.84;;;12.71;64.02
56719;BME280;42597;40.636;0.278;2023-04-07T03:45:43;97328.25;;;12.07;65.45
56719;BME280;42597;40.636;0.278;2023-04-07T03:48:09;97338.41;;;11.94;67.10
56719;BME280;42597;40.636;0.278;2023-04-07T03:50:39;97340.59;;;12.55;65.75
56719;BME280;42597;40.636;0.278;2023-04-07T03:53:05;97349.53;;;12.24;66.64
56719;BME280;42597;40.636;0.278;2023-04-07T03:55:31;97338.06;;;12.47;67.54
56719;BME280;42597;40.636;0.278;2023-04-07T03:57:57;97339.72;;;12.51;66.10
56719;BME280;42597;40.636;0.278;2023-04-07T04:00:23;97347.56;;;12.92;66.68
56719;BME280;42597;40.636;0.278;2023-04-07T04:02:49;97339.34;;;13.46;62.26
56719;BME280;42597;40.636;0.278;2023-04-07T04:05:15;97348.97;;;11.99;64.86
56719;BME280;42597;40.636;0.278;2023-04-07T04:07:40;97346.84;;;12.24;68.61
56719;BME280;42597;40.636;0.278;2023-04-07T04:10:06;97356.16;;;12.58;66.01
56719;BME280;42597;40.636;0.278;2023-04-07T04:12:32;97350.47;;;12.48;64.72
56719;BME280;42597;40.636;0.278;2023-04-07T04:14:58;97353.31;;;12.90;67.13
56719;BME280;42597;40.636;0.278;2023-04-07T04:17:24;97355.03;;;12.44;65.07
56719;BME280;42597;40.636;0.278;2023-04-07T04:19:50;97351.41;;;12.71;64.95
56719;BME280;42597;40.636;0.278;2023-04-07T04:22:16;97343.84;;;13.00;65.53
56719;BME280;42597;40.636;0.278;2023-04-07T04:24:42;97352.72;;;12.10;65.26
56719;BME280;42597;40.636;0.278;2023-04-07T04:27:08;97360.59;;;11.28;68.45
56719;BME280;42597;40.636;0.278;2023-04-07T04:29:33;97352.97;;;11.46;68.02
56719;BME280;42597;40.636;0.278;2023-04-07T04:31:59;97349.63;;;12.28;67.21
56719;BME280;42597;40.636;0.278;2023-04-07T04:34:25;97356.72;;;12.01;66.30
56719;BME280;42597;40.636;0.278;2023-04-07T04:36:51;97352.25;;;12.24;65.82
56719;BME280;42597;40.636;0.278;2023-04-07T04:39:17;97357.22;;;11.75;65.33
56719;BME280;42597;40.636;0.278;2023-04-07T04:41:44;97350.44;;;14.03;65.04
56719;BME280;42597;40.636;0.278;2023-04-07T04:44:10;97351.28;;;12.83;61.57
56719;BME280;42597;40.636;0.278;2023-04-07T04:46:36;97350.59;;;12.35;65.63
56719;BME280;42597;40.636;0.278;2023-04-07T04:49:02;97349.22;;;12.61;65.57
56719;BME280;42597;40.636;0.278;2023-04-07T04:51:28;97351.91;;;13.97;63.37
56719;BME280;42597;40.636;0.278;2023-04-07T04:53:54;97345.31;;;13.32;61.30
56719;BME280;42597;40.636;0.278;2023-04-07T04:56:20;97350.31;;;12.76;62.42
56719;BME280;42597;40.636;0.278;2023-04-07T04:58:46;97347.06;;;12.51;62.20
56719;BME280;42597;40.636;0.278;2023-04-07T05:01:12;97345.53;;;12.18;65.09
56719;BME280;42597;40.636;0.278;2023-04-07T05:03:38;97344.31;;;12.31;64.38
56719;BME280;42597;40.636;0.278;2023-04-07T05:06:04;97335.00;;;13.42;65.35
56719;BME280;42597;40.636;0.278;2023-04-07T05:08:30;97336.22;;;13.44;63.11
56719;BME280;42597;40.636;0.278;2023-04-07T05:10:56;97333.41;;;14.06;63.63
56719;BME280;42597;40.636;0.278;2023-04-07T05:13:22;97333.81;;;13.62;61.84
56719;BME280;42597;40.636;0.278;2023-04-07T05:15:48;97339.16;;;13.16;63.07
56719;BME280;42597;40.636;0.278;2023-04-07T05:18:14;97346.38;;;12.73;65.19
56719;BME280;42597;40.636;0.278;2023-04-07T05:20:40;97345.91;;;11.57;63.90
56719;BME280;42597;40.636;0.278;2023-04-07T05:23:05;97349.25;;;11.66;63.94
56719;BME280;42597;40.636;0.278;2023-04-07T05:25:31;97344.06;;;11.89;69.30
56719;BME280;42597;40.636;0.278;2023-04-07T05:27:58;97346.47;;;11.63;64.38
56719;BME280;42597;40.636;0.278;2023-04-07T05:30:24;97343.59;;;11.27;65.12
56719;BME280;42597;40.636;0.278;2023-04-07T05:32:51;97349.38;;;11.42;66.44
56719;BME280;42597;40.636;0.278;2023-04-07T05:35:17;97348.09;;;11.23;65.00
56719;BME280;42597;40.636;0.278;2023-04-07T05:37:43;97349.72;;;11.12;65.64
56719;BME280;42597;40.636;0.278;2023-04-07T05:40:09;97354.78;;;11.42;65.83
56719;BME280;42597;40.636;0.278;2023-04-07T05:42:35;97347.13;;;11.16;64.80
56719;BME280;42597;40.636;0.278;2023-04-07T05:45:01;97353.97;;;10.85;65.43
56719;BME280;42597;40.636;0.278;2023-04-07T05:47:27;97350.44;;;10.97;65.03
56719;BME280;42597;40.636;0.278;2023-04-07T05:49:53;97361.03;;;11.02;65.94
56719;BME280;42597;40.636;0.278;2023-04-07T05:52:18;97357.41;;;11.98;67.92
56719;BME280;42597;40.636;0.278;2023-04-07T05:54:44;97359.91;;;11.31;63.72
56719;BME280;42597;40.636;0.278;2023-04-07T05:57:10;97358.03;;;11.19;64.70
56719;BME280;42597;40.636;0.278;2023-04-07T05:59:36;97354.91;;;11.61;68.03
56719;BME280;42597;40.636;0.278;2023-04-07T06:02:02;97359.22;;;11.78;65.09
56719;BME280;42597;40.636;0.278;2023-04-07T06:04:28;97362.47;;;11.40;64.79
56719;BME280;42597;40.636;0.278;2023-04-07T06:06:54;97367.25;;;10.90;65.90
56719;BME280;42597;40.636;0.278;2023-04-07T06:09:21;97372.81;;;10.69;66.82
56719;BME280;42597;40.636;0.278;2023-04-07T06:11:46;97371.19;;;11.49;66.26
56719;BME280;42597;40.636;0.278;2023-04-07T06:14:13;97366.34;;;11.98;65.22
56719;BME280;42597;40.636;0.278;2023-04-07T06:16:38;97370.63;;;12.15;63.48
56719;BME280;42597;40.636;0.278;2023-04-07T06:19:05;97371.69;;;12.62;63.25
56719;BME280;42597;40.636;0.278;2023-04-07T06:21:32;97377.59;;;14.03;63.13
56719;BME280;42597;40.636;0.278;2023-04-07T06:23:58;97375.22;;;13.55;57.97
56719;BME280;42597;40.636;0.278;2023-04-07T06:26:24;97371.38;;;13.37;61.31
56719;BME280;42597;40.636;0.278;2023-04-07T06:28:51;97379.97;;;14.04;60.29
56719;BME280;42597;40.636;0.278;2023-04-07T06:31:16;97376.44;;;13.39;61.43
56719;BME280;42597;40.636;0.278;2023-04-07T06:33:43;97376.19;;;12.38;59.18
56719;BME280;42597;40.636;0.278;2023-04-07T06:36:09;97384.66;;;11.61;62.02
56719;BME280;42597;40.636;0.278;2023-04-07T06:38:36;97380.34;;;11.72;62.31
56719;BME280;42597;40.636;0.278;2023-04-07T06:41:02;97383.41;;;12.50;61.99
56719;BME280;42597;40.636;0.278;2023-04-07T06:43:28;97375.94;;;11.96;60.74
56719;BME280;42597;40.636;0.278;2023-04-07T06:45:54;97384.88;;;11.68;62.71
56719;BME280;42597;40.636;0.278;2023-04-07T06:48:19;97390.94;;;13.27;62.75
56719;BME280;42597;40.636;0.278;2023-04-07T06:50:47;97389.25;;;13.22;60.27
56719;BME280;42597;40.636;0.278;2023-04-07T06:53:13;97395.16;;;12.38;59.87
56719;BME280;42597;40.636;0.278;2023-04-07T06:55:39;97393.34;;;12.26;61.50
56719;BME280;42597;40.636;0.278;2023-04-07T06:58:05;97393.50;;;12.33;61.58
56719;BME280;42597;40.636;0.278;2023-04-07T07:00:31;97399.09;;;12.09;62.78
56719;BME280;42597;40.636;0.278;2023-04-07T07:02:57;97412.22;;;11.79;65.34
56719;BME280;42597;40.636;0.278;2023-04-07T07:05:23;97400.84;;;12.17;65.01
56719;BME280;42597;40.636;0.278;2023-04-07T07:07:49;97404.19;;;12.26;63.33
56719;BME280;42597;40.636;0.278;2023-04-07T07:10:16;97399.53;;;12.11;64.13
56719;BME280;42597;40.636;0.278;2023-04-07T07:12:42;97404.13;;;12.58;63.16
56719;BME280;42597;40.636;0.278;2023-04-07T07:15:08;97404.84;;;12.90;61.00
56719;BME280;42597;40.636;0.278;2023-04-07T07:17:34;97406.13;;;12.77;61.57
56719;BME280;42597;40.636;0.278;2023-04-07T07:20:00;97412.97;;;12.55;63.92
56719;BME280;42597;40.636;0.278;2023-04-07T07:22:26;97407.13;;;12.53;64.98
56719;BME280;42597;40.636;0.278;2023-04-07T07:24:51;97409.19;;;12.75;62.97
56719;BME280;42597;40.636;0.278;2023-04-07T07:27:17;97407.06;;;12.84;63.19
56719;BME280;42597;40.636;0.278;2023-04-07T07:29:43;97418.69;;;12.85;63.25
56719;BME280;42597;40.636;0.278;2023-04-07T07:32:09;97407.22;;;12.92;64.01
56719;BME280;42597;40.636;0.278;2023-04-07T07:34:35;97406.53;;;12.95;65.01
56719;BME280;42597;40.636;0.278;2023-04-07T07:37:00;97412.00;;;12.98;63.88
56719;BME280;42597;40.636;0.278;2023-04-07T07:39:27;97408.09;;;12.96;63.69
56719;BME280;42597;40.636;0.278;2023-04-07T07:41:54;97409.13;;;13.07;61.93
56719;BME280;42597;40.636;0.278;2023-04-07T07:44:20;97413.38;;;13.24;61.74
56719;BME280;42597;40.636;0.278;2023-04-07T07:46:48;97415.66;;;13.41;61.79
56719;BME280;42597;40.636;0.278;2023-04-07T07:49:14;97406.00;;;13.44;61.27
56719;BME280;42597;40.636;0.278;2023-04-07T07:51:40;97408.44;;;13.49;61.09
56719;BME280;42597;40.636;0.278;2023-04-07T07:54:05;97417.66;;;13.64;59.97
56719;BME280;42597;40.636;0.278;2023-04-07T07:56:31;97417.13;;;13.77;59.98
56719;BME280;42597;40.636;0.278;2023-04-07T07:58:57;97421.00;;;13.76;59.30
56719;BME280;42597;40.636;0.278;2023-04-07T08:01:23;97415.53;;;13.96;56.33
56719;BME280;42597;40.636;0.278;2023-04-07T08:03:49;97422.22;;;14.02;54.74
56719;BME280;42597;40.636;0.278;2023-04-07T08:06:15;97420.13;;;14.15;53.64
56719;BME280;42597;40.636;0.278;2023-04-07T08:08:41;97415.78;;;14.33;54.42
56719;BME280;42597;40.636;0.278;2023-04-07T08:11:06;97420.47;;;14.13;54.74
56719;BME280;42597;40.636;0.278;2023-04-07T08:13:32;97412.88;;;14.22;55.38
56719;BME280;42597;40.636;0.278;2023-04-07T08:15:58;97419.28;;;14.33;54.24
56719;BME280;42597;40.636;0.278;2023-04-07T08:18:23;97411.38;;;14.48;53.79
56719;BME280;42597;40.636;0.278;2023-04-07T08:20:49;97399.88;;;14.58;54.75
56719;BME280;42597;40.636;0.278;2023-04-07T08:23:16;97415.41;;;14.57;55.00
56719;BME280;42597;40.636;0.278;2023-04-07T08:25:42;97408.38;;;14.79;54.64
56719;BME280;42597;40.636;0.278;2023-04-07T08:28:07;97405.75;;;14.60;55.65
56719;BME280;42597;40.636;0.278;2023-04-07T08:30:33;97400.97;;;14.53;54.43
56719;BME280;42597;40.636;0.278;2023-04-07T08:32:59;97401.22;;;14.68;54.89
56719;BME280;42597;40.636;0.278;2023-04-07T08:35:25;97402.97;;;14.83;54.72
56719;BME280;42597;40.636;0.278;2023-04-07T08:37:51;97391.50;;;14.97;53.07
56719;BME280;42597;40.636;0.278;2023-04-07T08:40:16;97391.41;;;14.90;51.50
56719;BME280;42597;40.636;0.278;2023-04-07T08:42:46;97394.94;;;15.20;50.80
56719;BME280;42597;40.636;0.278;2023-04-07T08:45:13;97392.09;;;15.43;48.48
56719;BME280;42597;40.636;0.278;2023-04-07T08:47:41;97391.78;;;15.48;48.02
56719;BME280;42597;40.636;0.278;2023-04-07T08:50:09;97383.31;;;15.57;48.04
56719;BME280;42597;40.636;0.278;2023-04-07T08:52:48;97383.25;;;15.53;46.55
56719;BME280;42597;40.636;0.278;2023-04-07T08:55:15;97383.91;;;15.73;46.26
56719;BME280;42597;40.636;0.278;2023-04-07T08:57:42;97381.31;;;15.88;46.07
56719;BME280;42597;40.636;0.278;2023-04-07T09:00:08;97387.75;;;15.69;44.89
56719;BME280;42597;40.636;0.278;2023-04-07T09:02:37;97380.34;;;16.10;49.47
56719;BME280;42597;40.636;0.278;2023-04-07T09:05:05;97383.38;;;15.98;44.34
56719;BME280;42597;40.636;0.278;2023-04-07T09:07:32;97385.53;;;15.82;42.66
56719;BME280;42597;40.636;0.278;2023-04-07T09:09:58;97384.31;;;16.16;43.23
56719;BME280;42597;40.636;0.278;2023-04-07T09:12:24;97391.63;;;16.05;42.11
56719;BME280;42597;40.636;0.278;2023-04-07T09:14:51;97382.03;;;16.22;43.05
56719;BME280;42597;40.636;0.278;2023-04-07T09:17:18;97380.63;;;16.42;45.58
56719;BME280;42597;40.636;0.278;2023-04-07T09:19:43;97376.69;;;16.36;43.45
56719;BME280;42597;40.636;0.278;2023-04-07T09:22:09;97383.66;;;16.30;41.68
56719;BME280;42597;40.636;0.278;2023-04-07T09:24:39;97379.88;;;16.45;41.81
56719;BME280;42597;40.636;0.278;2023-04-07T09:27:13;97379.94;;;16.56;41.27
56719;BME280;42597;40.636;0.278;2023-04-07T09:29:41;97376.09;;;16.64;42.20
56719;BME280;42597;40.636;0.278;2023-04-07T09:32:08;97380.00;;;16.63;40.81
56719;BME280;42597;40.636;0.278;2023-04-07T09:34:37;97380.03;;;16.70;41.73
56719;BME280;42597;40.636;0.278;2023-04-07T09:37:07;97378.03;;;16.64;41.05
56719;BME280;42597;40.636;0.278;2023-04-07T09:39:48;97380.88;;;16.74;42.09
56719;BME280;42597;40.636;0.278;2023-04-07T09:42:15;97376.28;;;16.86;41.06
56719;BME280;42597;40.636;0.278;2023-04-07T09:44:40;97376.34;;;17.00;40.92
56719;BME280;42597;40.636;0.278;2023-04-07T09:47:06;97370.09;;;16.99;40.69
56719;BME280;42597;40.636;0.278;2023-04-07T09:49:32;97373.28;;;17.12;42.89
56719;BME280;42597;40.636;0.278;2023-04-07T09:52:12;97374.03;;;17.02;41.04
56719;BME280;42597;40.636;0.278;2023-04-07T09:54:41;97370.94;;;17.11;39.76
56719;BME280;42597;40.636;0.278;2023-04-07T09:57:08;97375.69;;;17.21;39.86
56719;BME280;42597;40.636;0.278;2023-04-07T09:59:39;97368.25;;;17.18;38.07
56719;BME280;42597;40.636;0.278;2023-04-07T10:02:12;97369.00;;;17.11;37.47
56719;BME280;42597;40.636;0.278;2023-04-07T10:04:38;97370.22;;;17.24;38.64
56719;BME280;42597;40.636;0.278;2023-04-07T10:07:05;97364.06;;;17.42;39.34
56719;BME280;42597;40.636;0.278;2023-04-07T10:09:31;97360.59;;;17.59;43.15
56719;BME280;42597;40.636;0.278;2023-04-07T10:11:58;97362.91;;;17.46;38.17
56719;BME280;42597;40.636;0.278;2023-04-07T10:14:30;97346.09;;;17.48;37.44
56719;BME280;42597;40.636;0.278;2023-04-07T10:16:58;97348.91;;;17.62;37.94
56719;BME280;42597;40.636;0.278;2023-04-07T10:19:29;97344.66;;;17.75;40.89
56719;BME280;42597;40.636;0.278;2023-04-07T10:21:57;97337.97;;;17.66;39.03
56719;BME280;42597;40.636;0.278;2023-04-07T10:27:04;97332.94;;;17.79;38.05
56719;BME280;42597;40.636;0.278;2023-04-07T10:29:38;97334.53;;;17.87;38.01
56719;BME280;42597;40.636;0.278;2023-04-07T10:32:05;97327.50;;;17.86;38.13
56719;BME280;42597;40.636;0.278;2023-04-07T10:37:16;97316.97;;;18.02;40.17
56719;BME280;42597;40.636;0.278;2023-04-07T10:39:46;97311.88;;;18.04;39.79
56719;BME280;42597;40.636;0.278;2023-04-07T10:45:03;97308.75;;;18.02;41.52
56719;BME280;42597;40.636;0.278;2023-04-07T10:47:29;97303.28;;;18.27;42.86
56719;BME280;42597;40.636;0.278;2023-04-07T10:50:14;97297.81;;;18.16;43.37
56719;BME280;42597;40.636;0.278;2023-04-07T10:52:41;97293.50;;;18.22;44.26
56719;BME280;42597;40.636;0.278;2023-04-07T10:58:16;97281.41;;;18.06;47.24
56719;BME280;42597;40.636;0.278;2023-04-07T11:03:31;97270.84;;;18.25;46.21
56719;BME280;42597;40.636;0.278;2023-04-07T11:06:12;97271.94;;;18.53;47.40
56719;BME280;42597;40.636;0.278;2023-04-07T11:08:40;97274.31;;;18.40;46.96
56719;BME280;42597;40.636;0.278;2023-04-07T11:11:09;97269.31;;;18.17;47.71
56719;BME280;42597;40.636;0.278;2023-04-07T11:13:45;97275.16;;;18.27;48.64
56719;BME280;42597;40.636;0.278;2023-04-07T11:16:12;97269.25;;;18.46;47.30
56719;BME280;42597;40.636;0.278;2023-04-07T11:18:39;97269.97;;;18.64;45.25
56719;BME280;42597;40.636;0.278;2023-04-07T11:21:06;97267.25;;;18.61;48.11
56719;BME280;42597;40.636;0.278;2023-04-07T11:23:39;97276.28;;;18.54;49.21
56719;BME280;42597;40.636;0.278;2023-04-07T11:26:05;97278.19;;;18.64;48.67
56719;BME280;42597;40.636;0.278;2023-04-07T11:28:32;97266.44;;;18.67;48.45
56719;BME280;42597;40.636;0.278;2023-04-07T11:30:58;97271.59;;;18.51;50.70
56719;BME280;42597;40.636;0.278;2023-04-07T11:33:29;97262.53;;;18.76;50.74
56719;BME280;42597;40.636;0.278;2023-04-07T11:36:00;97266.81;;;18.87;50.53
56719;BME280;42597;40.636;0.278;2023-04-07T11:38:37;97267.72;;;18.31;51.51
56719;BME280;42597;40.636;0.278;2023-04-07T11:41:13;97275.91;;;18.34;51.37
56719;BME280;42597;40.636;0.278;2023-04-07T11:43:40;97264.56;;;18.50;49.91
56719;BME280;42597;40.636;0.278;2023-04-07T11:46:08;97268.47;;;18.42;51.39
56719;BME280;42597;40.636;0.278;2023-04-07T11:48:36;97263.34;;;18.58;49.93
56719;BME280;42597;40.636;0.278;2023-04-07T11:51:02;97251.59;;;18.76;50.49
56719;BME280;42597;40.636;0.278;2023-04-07T11:53:33;97255.13;;;18.72;51.81
56719;BME280;42597;40.636;0.278;2023-04-07T11:56:03;97254.03;;;18.38;52.47
56719;BME280;42597;40.636;0.278;2023-04-07T11:58:30;97255.19;;;18.37;51.71
56719;BME280;42597;40.636;0.278;2023-04-07T12:00:57;97244.56;;;18.60;49.84
56719;BME280;42597;40.636;0.278;2023-04-07T12:03:27;97245.34;;;18.71;52.70
56719;BME280;42597;40.636;0.278;2023-04-07T12:05:54;97252.34;;;18.87;51.75
56719;BME280;42597;40.636;0.278;2023-04-07T12:08:19;97240.66;;;18.61;54.18
56719;BME280;42597;40.636;0.278;2023-04-07T12:10:46;97236.75;;;18.66;54.31
56719;BME280;42597;40.636;0.278;2023-04-07T12:13:12;97235.16;;;18.76;54.33
56719;BME280;42597;40.636;0.278;2023-04-07T12:15:39;97231.31;;;18.59;53.65
56719;BME280;42597;40.636;0.278;2023-04-07T12:18:05;97228.13;;;18.82;51.39
56719;BME280;42597;40.636;0.278;2023-04-07T12:20:31;97231.28;;;18.69;54.57
56719;BME280;42597;40.636;0.278;2023-04-07T12:22:57;97225.00;;;18.72;54.78
56719;BME280;42597;40.636;0.278;2023-04-07T12:25:25;97220.00;;;18.42;55.63
56719;BME280;42597;40.636;0.278;2023-04-07T12:27:51;97229.78;;;18.47;55.10
56719;BME280;42597;40.636;0.278;2023-04-07T12:30:17;97219.56;;;18.65;54.63
56719;BME280;42597;40.636;0.278;2023-04-07T12:32:43;97227.38;;;18.60;53.69
56719;BME280;42597;40.636;0.278;2023-04-07T12:35:09;97221.09;;;18.66;53.60
56719;BME280;42597;40.636;0.278;2023-04-07T12:37:34;97219.50;;;18.80;53.01
56719;BME280;42597;40.636;0.278;2023-04-07T12:40:01;97214.50;;;18.53;55.16
56719;BME280;42597;40.636;0.278;2023-04-07T12:42:27;97209.47;;;18.37;55.25
56719;BME280;42597;40.636;0.278;2023-04-07T12:44:53;97211.41;;;18.44;54.64
56719;BME280;42597;40.636;0.278;2023-04-07T12:47:19;97203.19;;;18.44;54.73
56719;BME280;42597;40.636;0.278;2023-04-07T12:49:45;97200.38;;;18.72;54.37
56719;BME280;42597;40.636;0.278;2023-04-07T12:52:10;97196.91;;;18.54;54.34
56719;BME280;42597;40.636;0.278;2023-04-07T12:54:36;97200.00;;;18.63;54.31
56719;BME280;42597;40.636;0.278;2023-04-07T12:57:02;97193.84;;;18.38;54.60
56719;BME280;42597;40.636;0.278;2023-04-07T12:59:28;97192.22;;;18.51;53.84
56719;BME280;42597;40.636;0.278;2023-04-07T13:01:54;97184.38;;;18.60;53.17
56719;BME280;42597;40.636;0.278;2023-04-07T13:04:20;97178.88;;;18.67;52.50
56719;BME280;42597;40.636;0.278;2023-04-07T13:06:46;97185.56;;;18.59;53.23
56719;BME280;42597;40.636;0.278;2023-04-07T13:09:12;97183.59;;;18.70;53.00
56719;BME280;42597;40.636;0.278;2023-04-07T13:11:37;97176.13;;;18.78;53.20
56719;BME280;42597;40.636;0.278;2023-04-07T13:14:03;97167.94;;;18.67;53.30
56719;BME280;42597;40.636;0.278;2023-04-07T13:16:29;97156.25;;;18.56;53.36
56719;BME280;42597;40.636;0.278;2023-04-07T13:18:55;97160.91;;;18.66;53.02